Flight Track Log - Related Links

Times and Time Zones

All times are in EDT time to prevent confusion due to time zone crossing. See the TYR772 flight status page for this flight to view local times or setup timezone preferences in your user account.

Time Position Orientation Groundspeed Altitude Reporting Facility
EDT Latitude Longitude Course Direction KTS MPH feet Rate Location/Type
Mon 02:21:00 AM 45.0233 20.0928 323° Northwest  Level Estimated
Mon 02:22:00 AM 45.0916 20.0204 323° Northwest  Level Estimated
Mon 02:23:00 AM 45.1597 19.9478 323° Northwest  Level Estimated
Mon 02:24:00 AM 45.2278 19.8750 323° Northwest  Level Estimated
Mon 02:25:00 AM 45.2959 19.8020 323° Northwest  Level Estimated
Mon 02:26:00 AM 45.3639 19.7289 323° Northwest  Level Estimated
Mon 02:27:00 AM 45.4319 19.6556 323° Northwest  Level Estimated
Mon 02:28:00 AM 45.4998 19.5821 323° Northwest  Level Estimated
Mon 02:29:00 AM 45.5677 19.5084 323° Northwest  Level Estimated
Mon 02:30:00 AM 45.6356 19.4346 323° Northwest  Level Estimated
Mon 02:31:00 AM 45.7034 19.3606 323° Northwest  Level Estimated
Mon 02:32:00 AM 45.7711 19.2864 323° Northwest  Level Estimated
Mon 02:33:00 AM 45.8388 19.2120 323° Northwest  Level Estimated
Mon 02:34:00 AM 45.9064 19.1374 323° Northwest  Level Estimated
Mon 02:35:00 AM 45.9740 19.0627 322° Northwest  Level Estimated
Mon 02:36:00 AM 46.0416 18.9877 322° Northwest  Level Estimated
Mon 02:37:00 AM 46.1091 18.9126 322° Northwest  Level Estimated
Mon 02:38:00 AM 46.1765 18.8373 322° Northwest  Level Estimated
Mon 02:39:00 AM 46.2439 18.7619 322° Northwest  Level Estimated
Mon 02:40:00 AM 46.3113 18.6862 322° Northwest  Level Estimated
Mon 02:41:00 AM 46.3786 18.6103 322° Northwest  Level Estimated
Mon 02:42:00 AM 46.4458 18.5343 322° Northwest  Level Estimated
Mon 02:43:00 AM 46.5130 18.4580 322° Northwest  Level Estimated
Mon 02:44:00 AM 46.5802 18.3816 322° Northwest  Level Estimated
Mon 02:45:00 AM 46.6473 18.3050 322° Northwest  Level Estimated
Mon 02:46:00 AM 46.7143 18.2282 322° Northwest  Level Estimated
Mon 02:47:00 AM 46.7813 18.1512 322° Northwest  Level Estimated
Mon 02:48:00 AM 46.8482 18.0741 322° Northwest  Level Estimated
Mon 02:49:00 AM 46.9151 17.9967 322° Northwest  Level Estimated
Mon 02:50:00 AM 46.9820 17.9191 322° Northwest  Level Estimated
Mon 02:51:00 AM 47.0488 17.8414 322° Northwest  Level Estimated
Mon 02:52:00 AM 47.1155 17.7634 322° Northwest  Level Estimated
Mon 02:53:00 AM 47.1822 17.6852 321° Northwest  Level Estimated
Mon 02:54:00 AM 47.2488 17.6069 321° Northwest  Level Estimated
Mon 02:55:00 AM 47.3154 17.5283 321° Northwest  Level Estimated
Mon 02:56:00 AM 47.3819 17.4496 321° Northwest  Level Estimated
Mon 02:57:00 AM 47.4483 17.3707 321° Northwest  Level Estimated
Mon 02:58:00 AM 47.5148 17.2915 321° Northwest  Level Estimated
Mon 02:59:00 AM 47.5811 17.2122 321° Northwest  Level Estimated
Mon 03:00:00 AM 47.6474 17.1326 321° Northwest  Level Estimated
Mon 03:01:00 AM 47.7137 17.0529 321° Northwest  Level Estimated
Mon 03:02:00 AM 47.7799 16.9729 321° Northwest  Level Estimated
Mon 03:03:00 AM 47.8460 16.8928 321° Northwest  Level Estimated
Mon 03:04:00 AM 47.9121 16.8124 321° Northwest  Level Estimated
Mon 03:05:00 AM 47.9781 16.7319 321° Northwest  Level Estimated
Mon 03:06:00 AM 48.0440 16.6511 321° Northwest  Level Estimated
Mon 03:07:00 AM 48.1100 16.5701 321° Northwest  Level Estimated
Mon 03:08:00 AM 48.1103 16.5697 320° Northwest  Level Estimated
Mon 03:09:00 AM 48.1103 16.5697 146° Southeast  Level Estimated
Mon 03:10:00 AM 48.1103 16.5697 146° Southeast  Level Estimated
Mon 03:11:00 AM 48.1103 16.5697 146° Southeast  Level Estimated
Mon 03:12:00 AM 48.1103 16.5697 146° Southeast  Level Estimated
Mon 03:13:00 AM 48.1103 16.5697 146° Southeast  Level Estimated
Mon 03:14:00 AM 48.1103 16.5697 146° Southeast  Level Estimated

Login

Don't have an account? Register now (free) for customized features, flight alerts, and more!